sensor_id;sensor_type;location;lat;lon;timestamp;pressure;altitude;pressure_sealevel;temperature;humidity
68871;BME280;55906;52.278;6.808;2023-04-22T00:00:04;100783.91;;;10.57;90.83
68871;BME280;55906;52.278;6.808;2023-04-22T00:02:31;100783.81;;;10.54;90.62
68871;BME280;55906;52.278;6.808;2023-04-22T00:04:58;100777.56;;;10.49;89.92
68871;BME280;55906;52.278;6.808;2023-04-22T00:07:26;100774.00;;;10.47;90.30
68871;BME280;55906;52.278;6.808;2023-04-22T00:09:53;100776.53;;;10.43;90.30
68871;BME280;55906;52.278;6.808;2023-04-22T00:12:20;100784.31;;;10.40;90.14
68871;BME280;55906;52.278;6.808;2023-04-22T00:14:46;100792.97;;;10.36;90.38
68871;BME280;55906;52.278;6.808;2023-04-22T00:17:13;100785.00;;;10.33;90.08
68871;BME280;55906;52.278;6.808;2023-04-22T00:19:40;100782.28;;;10.30;90.04
68871;BME280;55906;52.278;6.808;2023-04-22T00:22:07;100777.81;;;10.25;90.37
68871;BME280;55906;52.278;6.808;2023-04-22T00:24:34;100782.19;;;10.25;90.33
68871;BME280;55906;52.278;6.808;2023-04-22T00:27:01;100780.41;;;10.24;90.54
68871;BME280;55906;52.278;6.808;2023-04-22T00:29:28;100768.75;;;10.16;90.77
68871;BME280;55906;52.278;6.808;2023-04-22T00:31:55;100773.22;;;10.18;90.25
68871;BME280;55906;52.278;6.808;2023-04-22T00:34:21;100772.28;;;10.16;90.63
68871;BME280;55906;52.278;6.808;2023-04-22T00:36:48;100769.56;;;10.13;90.90
68871;BME280;55906;52.278;6.808;2023-04-22T00:39:15;100768.72;;;10.14;91.27
68871;BME280;55906;52.278;6.808;2023-04-22T00:41:43;100760.84;;;10.14;91.14
68871;BME280;55906;52.278;6.808;2023-04-22T00:44:11;100759.13;;;10.16;91.00
68871;BME280;55906;52.278;6.808;2023-04-22T00:46:38;100761.75;;;10.16;91.28
68871;BME280;55906;52.278;6.808;2023-04-22T00:49:05;100766.13;;;10.16;91.21
68871;BME280;55906;52.278;6.808;2023-04-22T00:51:32;100761.69;;;10.13;91.36
68871;BME280;55906;52.278;6.808;2023-04-22T00:53:59;100757.34;;;10.15;91.29
68871;BME280;55906;52.278;6.808;2023-04-22T00:56:27;100763.47;;;10.14;91.14
68871;BME280;55906;52.278;6.808;2023-04-22T00:58:55;100758.13;;;10.11;91.33
68871;BME280;55906;52.278;6.808;2023-04-22T01:01:23;100751.06;;;10.09;90.98
68871;BME280;55906;52.278;6.808;2023-04-22T01:03:50;100749.25;;;10.06;91.04
68871;BME280;55906;52.278;6.808;2023-04-22T01:06:18;100748.22;;;10.01;90.64
68871;BME280;55906;52.278;6.808;2023-04-22T01:08:45;100745.47;;;9.97;90.61
68871;BME280;55906;52.278;6.808;2023-04-22T01:11:12;100743.66;;;9.94;90.29
68871;BME280;55906;52.278;6.808;2023-04-22T01:13:39;100748.81;;;9.89;90.24
68871;BME280;55906;52.278;6.808;2023-04-22T01:16:07;100739.09;;;9.87;90.87
68871;BME280;55906;52.278;6.808;2023-04-22T01:18:35;100734.66;;;9.84;91.14
68871;BME280;55906;52.278;6.808;2023-04-22T01:21:02;100733.72;;;9.82;91.10
68871;BME280;55906;52.278;6.808;2023-04-22T01:23:30;100739.78;;;9.80;91.44
68871;BME280;55906;52.278;6.808;2023-04-22T01:25:56;100741.47;;;9.78;91.27
68871;BME280;55906;52.278;6.808;2023-04-22T01:28:24;100728.31;;;9.76;91.67
68871;BME280;55906;52.278;6.808;2023-04-22T01:30:51;100736.19;;;9.76;91.77
68871;BME280;55906;52.278;6.808;2023-04-22T01:33:18;100744.03;;;9.75;91.36
68871;BME280;55906;52.278;6.808;2023-04-22T01:35:44;100744.00;;;9.73;91.54
68871;BME280;55906;52.278;6.808;2023-04-22T01:38:12;100739.53;;;9.71;91.51
68871;BME280;55906;52.278;6.808;2023-04-22T01:40:40;100739.41;;;9.66;90.86
68871;BME280;55906;52.278;6.808;2023-04-22T01:43:06;100736.72;;;9.63;91.29
68871;BME280;55906;52.278;6.808;2023-04-22T01:45:33;100734.00;;;9.60;91.48
68871;BME280;55906;52.278;6.808;2023-04-22T01:48:00;100737.44;;;9.57;91.11
68871;BME280;55906;52.278;6.808;2023-04-22T01:50:26;100735.66;;;9.56;91.68
68871;BME280;55906;52.278;6.808;2023-04-22T01:52:53;100732.94;;;9.53;90.90
68871;BME280;55906;52.278;6.808;2023-04-22T01:55:20;100729.34;;;9.50;91.49
68871;BME280;55906;52.278;6.808;2023-04-22T01:57:48;100727.59;;;9.50;91.47
68871;BME280;55906;52.278;6.808;2023-04-22T02:00:15;100732.00;;;9.51;91.23
68871;BME280;55906;52.278;6.808;2023-04-22T02:02:41;100724.03;;;9.48;91.43
68871;BME280;55906;52.278;6.808;2023-04-22T02:05:09;100724.91;;;9.47;91.70
68871;BME280;55906;52.278;6.808;2023-04-22T02:07:35;100716.09;;;9.45;91.42
68871;BME280;55906;52.278;6.808;2023-04-22T02:10:02;100709.06;;;9.44;91.93
68871;BME280;55906;52.278;6.808;2023-04-22T02:12:29;100716.94;;;9.44;91.87
68871;BME280;55906;52.278;6.808;2023-04-22T02:14:58;100723.13;;;9.46;91.80
68871;BME280;55906;52.278;6.808;2023-04-22T02:17:25;100723.13;;;9.46;91.55
68871;BME280;55906;52.278;6.808;2023-04-22T02:19:51;100716.94;;;9.44;91.75
68871;BME280;55906;52.278;6.808;2023-04-22T02:22:18;100720.44;;;9.45;91.45
68871;BME280;55906;52.278;6.808;2023-04-22T02:24:45;100720.50;;;9.46;91.60
68871;BME280;55906;52.278;6.808;2023-04-22T02:27:12;100713.41;;;9.44;91.50
68871;BME280;55906;52.278;6.808;2023-04-22T02:29:38;100710.72;;;9.41;91.46
68871;BME280;55906;52.278;6.808;2023-04-22T02:32:07;100719.50;;;9.43;91.82
68871;BME280;55906;52.278;6.808;2023-04-22T02:34:33;100712.53;;;9.43;91.74
68871;BME280;55906;52.278;6.808;2023-04-22T02:37:00;100708.13;;;9.42;91.59
68871;BME280;55906;52.278;6.808;2023-04-22T02:39:27;100709.06;;;9.44;91.92
68871;BME280;55906;52.278;6.808;2023-04-22T02:41:53;100711.72;;;9.46;91.86
68871;BME280;55906;52.278;6.808;2023-04-22T02:44:20;100713.47;;;9.45;91.38
68871;BME280;55906;52.278;6.808;2023-04-22T02:46:46;100709.09;;;9.46;91.73
68871;BME280;55906;52.278;6.808;2023-04-22T02:49:14;100701.22;;;9.46;91.54
68871;BME280;55906;52.278;6.808;2023-04-22T02:51:41;100703.81;;;9.44;91.43
68871;BME280;55906;52.278;6.808;2023-04-22T02:54:08;100704.59;;;9.42;91.00
68871;BME280;55906;52.278;6.808;2023-04-22T02:56:34;100699.34;;;9.42;91.86
68871;BME280;55906;52.278;6.808;2023-04-22T02:59:01;100700.25;;;9.42;91.44
68871;BME280;55906;52.278;6.808;2023-04-22T03:01:28;100698.56;;;9.44;91.90
68871;BME280;55906;52.278;6.808;2023-04-22T03:03:55;100698.59;;;9.46;91.69
68871;BME280;55906;52.278;6.808;2023-04-22T03:06:23;100697.75;;;9.47;91.46
68871;BME280;55906;52.278;6.808;2023-04-22T03:08:49;100696.72;;;9.42;91.15
68871;BME280;55906;52.278;6.808;2023-04-22T03:11:16;100697.56;;;9.41;91.05
68871;BME280;55906;52.278;6.808;2023-04-22T03:13:43;100691.47;;;9.42;91.12
68871;BME280;55906;52.278;6.808;2023-04-22T03:16:09;100698.47;;;9.41;91.08
68871;BME280;55906;52.278;6.808;2023-04-22T03:18:36;100692.31;;;9.41;91.05
68871;BME280;55906;52.278;6.808;2023-04-22T03:21:03;100693.22;;;9.41;91.34
68871;BME280;55906;52.278;6.808;2023-04-22T03:23:31;100689.75;;;9.42;91.85
68871;BME280;55906;52.278;6.808;2023-04-22T03:25:57;100689.75;;;9.42;91.16
68871;BME280;55906;52.278;6.808;2023-04-22T03:28:24;100688.09;;;9.46;91.56
68871;BME280;55906;52.278;6.808;2023-04-22T03:30:51;100677.63;;;9.47;91.85
68871;BME280;55906;52.278;6.808;2023-04-22T03:33:17;100675.84;;;9.46;91.41
68871;BME280;55906;52.278;6.808;2023-04-22T03:35:46;100668.03;;;9.48;91.43
68871;BME280;55906;52.278;6.808;2023-04-22T03:38:13;100668.81;;;9.45;91.53
68871;BME280;55906;52.278;6.808;2023-04-22T03:40:41;100672.41;;;9.49;91.61
68871;BME280;55906;52.278;6.808;2023-04-22T03:43:08;100674.25;;;9.51;91.59
68871;BME280;55906;52.278;6.808;2023-04-22T03:45:34;100664.63;;;9.52;91.21
68871;BME280;55906;52.278;6.808;2023-04-22T03:48:01;100664.63;;;9.52;91.27
68871;BME280;55906;52.278;6.808;2023-04-22T03:50:27;100661.16;;;9.53;91.89
68871;BME280;55906;52.278;6.808;2023-04-22T03:52:54;100661.28;;;9.57;91.60
68871;BME280;55906;52.278;6.808;2023-04-22T03:55:21;100655.16;;;9.58;91.72
68871;BME280;55906;52.278;6.808;2023-04-22T03:57:49;100658.72;;;9.60;91.38
68871;BME280;55906;52.278;6.808;2023-04-22T04:00:15;100657.97;;;9.65;91.93
68871;BME280;55906;52.278;6.808;2023-04-22T04:02:42;100662.34;;;9.66;91.83
68871;BME280;55906;52.278;6.808;2023-04-22T04:05:09;100645.78;;;9.68;92.14
68871;BME280;55906;52.278;6.808;2023-04-22T04:07:36;100646.72;;;9.70;91.84
68871;BME280;55906;52.278;6.808;2023-04-22T04:10:03;100637.13;;;9.72;92.08
68871;BME280;55906;52.278;6.808;2023-04-22T04:12:29;100645.06;;;9.74;91.85
68871;BME280;55906;52.278;6.808;2023-04-22T04:14:57;100641.59;;;9.75;91.82
68871;BME280;55906;52.278;6.808;2023-04-22T04:17:24;100652.13;;;9.76;91.51
68871;BME280;55906;52.278;6.808;2023-04-22T04:19:53;100642.53;;;9.78;91.52
68871;BME280;55906;52.278;6.808;2023-04-22T04:22:20;100642.59;;;9.80;91.72
68871;BME280;55906;52.278;6.808;2023-04-22T04:24:46;100638.25;;;9.82;91.39
68871;BME280;55906;52.278;6.808;2023-04-22T04:27:14;100637.41;;;9.83;91.63
68871;BME280;55906;52.278;6.808;2023-04-22T04:29:40;100637.44;;;9.84;91.31
68871;BME280;55906;52.278;6.808;2023-04-22T04:32:08;100640.97;;;9.85;91.39
68871;BME280;55906;52.278;6.808;2023-04-22T04:34:35;100643.66;;;9.88;91.39
68871;BME280;55906;52.278;6.808;2023-04-22T04:37:02;100648.09;;;9.90;91.83
68871;BME280;55906;52.278;6.808;2023-04-22T04:39:28;100641.13;;;9.91;91.68
68871;BME280;55906;52.278;6.808;2023-04-22T04:41:55;100641.16;;;9.92;91.55
68871;BME280;55906;52.278;6.808;2023-04-22T04:44:22;100632.41;;;9.93;91.35
68871;BME280;55906;52.278;6.808;2023-04-22T04:46:50;100641.25;;;9.97;91.69
68871;BME280;55906;52.278;6.808;2023-04-22T04:49:20;100642.19;;;9.99;91.10
68871;BME280;55906;52.278;6.808;2023-04-22T04:51:47;100642.25;;;10.02;90.84
68871;BME280;55906;52.278;6.808;2023-04-22T04:54:14;100647.59;;;10.05;90.98
68871;BME280;55906;52.278;6.808;2023-04-22T04:56:40;100648.50;;;10.07;91.59
68871;BME280;55906;52.278;6.808;2023-04-22T04:59:07;100647.78;;;10.13;91.07
68871;BME280;55906;52.278;6.808;2023-04-22T05:01:34;100647.03;;;10.18;90.64
68871;BME280;55906;52.278;6.808;2023-04-22T05:04:01;100643.66;;;10.22;91.26
68871;BME280;55906;52.278;6.808;2023-04-22T05:06:29;100647.25;;;10.26;90.98
68871;BME280;55906;52.278;6.808;2023-04-22T05:08:57;100642.09;;;10.31;91.16
68871;BME280;55906;52.278;6.808;2023-04-22T05:11:23;100635.16;;;10.34;90.53
68871;BME280;55906;52.278;6.808;2023-04-22T05:13:50;100632.63;;;10.39;90.35
68871;BME280;55906;52.278;6.808;2023-04-22T05:16:16;100633.63;;;10.42;90.48
68871;BME280;55906;52.278;6.808;2023-04-22T05:18:43;100646.00;;;10.46;90.21
68871;BME280;55906;52.278;6.808;2023-04-22T05:21:10;100625.91;;;10.50;89.93
68871;BME280;55906;52.278;6.808;2023-04-22T05:23:38;100626.91;;;10.55;89.91
68871;BME280;55906;52.278;6.808;2023-04-22T05:26:04;100625.22;;;10.58;90.62
68871;BME280;55906;52.278;6.808;2023-04-22T05:28:31;100622.66;;;10.62;90.48
68871;BME280;55906;52.278;6.808;2023-04-22T05:30:58;100633.28;;;10.66;90.48
68871;BME280;55906;52.278;6.808;2023-04-22T05:33:25;100650.91;;;10.70;90.60
68871;BME280;55906;52.278;6.808;2023-04-22T05:35:51;100642.16;;;10.71;90.14
68871;BME280;55906;52.278;6.808;2023-04-22T05:38:18;100648.38;;;10.75;90.62
68871;BME280;55906;52.278;6.808;2023-04-22T05:40:46;100647.63;;;10.80;90.45
68871;BME280;55906;52.278;6.808;2023-04-22T05:43:13;100646.81;;;10.84;90.74
68871;BME280;55906;52.278;6.808;2023-04-22T05:45:40;100646.06;;;10.90;90.25
68871;BME280;55906;52.278;6.808;2023-04-22T05:48:06;100637.34;;;10.93;90.15
68871;BME280;55906;52.278;6.808;2023-04-22T05:50:33;100641.84;;;10.98;90.33
68871;BME280;55906;52.278;6.808;2023-04-22T05:52:59;100638.41;;;11.02;90.18
68871;BME280;55906;52.278;6.808;2023-04-22T05:55:26;100637.66;;;11.08;90.38
68871;BME280;55906;52.278;6.808;2023-04-22T05:57:54;100637.78;;;11.14;90.37
68871;BME280;55906;52.278;6.808;2023-04-22T06:00:21;100638.78;;;11.20;90.51
68871;BME280;55906;52.278;6.808;2023-04-22T06:02:47;100634.50;;;11.27;90.38
68871;BME280;55906;52.278;6.808;2023-04-22T06:05:14;100636.41;;;11.34;89.99
68871;BME280;55906;52.278;6.808;2023-04-22T06:07:41;100629.47;;;11.39;89.88
68871;BME280;55906;52.278;6.808;2023-04-22T06:10:08;100633.97;;;11.45;90.12
68871;BME280;55906;52.278;6.808;2023-04-22T06:12:35;100630.56;;;11.50;90.15
68871;BME280;55906;52.278;6.808;2023-04-22T06:15:04;100624.50;;;11.56;89.63
68871;BME280;55906;52.278;6.808;2023-04-22T06:17:31;100617.59;;;11.63;89.87
68871;BME280;55906;52.278;6.808;2023-04-22T06:19:57;100621.28;;;11.71;89.53
68871;BME280;55906;52.278;6.808;2023-04-22T06:22:24;100624.91;;;11.76;89.58
68871;BME280;55906;52.278;6.808;2023-04-22T06:24:51;100626.81;;;11.83;89.63
68871;BME280;55906;52.278;6.808;2023-04-22T06:27:17;100627.75;;;11.88;89.24
68871;BME280;55906;52.278;6.808;2023-04-22T06:29:44;100627.00;;;11.95;88.27
68871;BME280;55906;52.278;6.808;2023-04-22T06:32:12;100631.50;;;12.02;88.37
68871;BME280;55906;52.278;6.808;2023-04-22T06:34:39;100632.47;;;12.07;87.92
68871;BME280;55906;52.278;6.808;2023-04-22T06:37:05;100637.88;;;12.16;87.73
68871;BME280;55906;52.278;6.808;2023-04-22T06:39:33;100630.13;;;12.26;87.73
68871;BME280;55906;52.278;6.808;2023-04-22T06:41:59;100628.47;;;12.32;87.14
68871;BME280;55906;52.278;6.808;2023-04-22T06:44:28;100631.28;;;12.46;87.15
68871;BME280;55906;52.278;6.808;2023-04-22T06:46:55;100635.84;;;12.56;86.94
68871;BME280;55906;52.278;6.808;2023-04-22T06:49:23;100626.25;;;12.64;86.48
68871;BME280;55906;52.278;6.808;2023-04-22T06:51:49;100625.53;;;12.74;86.46
68871;BME280;55906;52.278;6.808;2023-04-22T06:54:16;100625.63;;;12.82;85.92
68871;BME280;55906;52.278;6.808;2023-04-22T06:56:43;100628.38;;;12.91;86.21
68871;BME280;55906;52.278;6.808;2023-04-22T06:59:09;100629.44;;;13.04;85.76
68871;BME280;55906;52.278;6.808;2023-04-22T07:01:36;100633.97;;;13.14;85.31
68871;BME280;55906;52.278;6.808;2023-04-22T07:04:03;100633.22;;;13.24;84.67
68871;BME280;55906;52.278;6.808;2023-04-22T07:06:31;100628.94;;;13.35;83.93
68871;BME280;55906;52.278;6.808;2023-04-22T07:08:58;100621.09;;;13.43;82.34
68871;BME280;55906;52.278;6.808;2023-04-22T07:11:25;100620.34;;;13.55;82.87
68871;BME280;55906;52.278;6.808;2023-04-22T07:13:52;100623.06;;;13.65;82.55
68871;BME280;55906;52.278;6.808;2023-04-22T07:16:18;100627.56;;;13.75;82.49
68871;BME280;55906;52.278;6.808;2023-04-22T07:18:45;100624.13;;;13.83;81.91
68871;BME280;55906;52.278;6.808;2023-04-22T07:21:11;100617.13;;;13.92;80.58
68871;BME280;55906;52.278;6.808;2023-04-22T07:23:39;100624.28;;;14.04;81.01
68871;BME280;55906;52.278;6.808;2023-04-22T07:26:06;100613.66;;;13.96;80.14
68871;BME280;55906;52.278;6.808;2023-04-22T07:28:33;100618.97;;;14.02;80.17
68871;BME280;55906;52.278;6.808;2023-04-22T07:30:59;100619.03;;;14.08;80.26
68871;BME280;55906;52.278;6.808;2023-04-22T07:33:26;100615.56;;;14.19;79.94
68871;BME280;55906;52.278;6.808;2023-04-22T07:35:53;100601.53;;;14.29;79.66
68871;BME280;55906;52.278;6.808;2023-04-22T07:38:19;100604.28;;;14.41;79.67
68871;BME280;55906;52.278;6.808;2023-04-22T07:40:47;100605.25;;;14.52;79.35
68871;BME280;55906;52.278;6.808;2023-04-22T07:43:14;100593.84;;;14.64;78.92
68871;BME280;55906;52.278;6.808;2023-04-22T07:45:41;100587.72;;;14.74;78.51
68871;BME280;55906;52.278;6.808;2023-04-22T07:48:07;100592.19;;;14.92;78.37
68871;BME280;55906;52.278;6.808;2023-04-22T07:50:34;100582.53;;;15.09;77.16
68871;BME280;55906;52.278;6.808;2023-04-22T07:53:00;100590.53;;;15.20;76.71
68871;BME280;55906;52.278;6.808;2023-04-22T07:55:27;100594.06;;;15.29;76.12
68871;BME280;55906;52.278;6.808;2023-04-22T07:57:55;100595.88;;;15.43;73.43
68871;BME280;55906;52.278;6.808;2023-04-22T08:00:24;100594.09;;;15.51;74.37
68871;BME280;55906;52.278;6.808;2023-04-22T08:02:50;100588.00;;;15.62;74.27
68871;BME280;55906;52.278;6.808;2023-04-22T08:05:17;100587.13;;;15.76;72.98
68871;BME280;55906;52.278;6.808;2023-04-22T08:07:44;100582.69;;;15.90;73.16
68871;BME280;55906;52.278;6.808;2023-04-22T08:10:10;100582.69;;;15.91;72.12
68871;BME280;55906;52.278;6.808;2023-04-22T08:12:37;100574.72;;;16.10;71.97
68871;BME280;55906;52.278;6.808;2023-04-22T08:15:06;100566.72;;;16.25;71.73
68871;BME280;55906;52.278;6.808;2023-04-22T08:17:33;100559.59;;;16.39;71.73
68871;BME280;55906;52.278;6.808;2023-04-22T08:20:00;100548.94;;;16.53;70.78
68871;BME280;55906;52.278;6.808;2023-04-22T08:22:26;100545.38;;;16.68;70.61
68871;BME280;55906;52.278;6.808;2023-04-22T08:24:53;100539.09;;;16.85;70.41
68871;BME280;55906;52.278;6.808;2023-04-22T08:27:20;100546.06;;;17.11;69.22
68871;BME280;55906;52.278;6.808;2023-04-22T08:29:47;100540.66;;;17.23;66.24
68871;BME280;55906;52.278;6.808;2023-04-22T08:32:15;100546.78;;;17.36;64.61
68871;BME280;55906;52.278;6.808;2023-04-22T08:34:43;100547.56;;;17.48;62.14
68871;BME280;55906;52.278;6.808;2023-04-22T08:37:10;100541.13;;;17.81;63.15
68871;BME280;55906;52.278;6.808;2023-04-22T08:39:37;100554.06;;;18.22;63.52
68871;BME280;55906;52.278;6.808;2023-04-22T08:42:04;100543.97;;;18.50;61.13
68871;BME280;55906;52.278;6.808;2023-04-22T08:44:30;100551.72;;;18.73;61.21
68871;BME280;55906;52.278;6.808;2023-04-22T08:46:58;100556.69;;;18.99;58.82
68871;BME280;55906;52.278;6.808;2023-04-22T08:49:27;100556.19;;;19.34;58.62
68871;BME280;55906;52.278;6.808;2023-04-22T08:51:55;100551.81;;;19.89;58.98
68871;BME280;55906;52.278;6.808;2023-04-22T08:54:22;100545.50;;;19.93;54.29
68871;BME280;55906;52.278;6.808;2023-04-22T08:56:49;100556.56;;;20.21;54.62
68871;BME280;55906;52.278;6.808;2023-04-22T08:59:16;100547.09;;;20.51;53.97
68871;BME280;55906;52.278;6.808;2023-04-22T09:01:45;100550.91;;;20.84;51.73
68871;BME280;55906;52.278;6.808;2023-04-22T09:04:15;100546.22;;;20.95;51.86
68871;BME280;55906;52.278;6.808;2023-04-22T09:06:44;100548.16;;;21.28;51.58
68871;BME280;55906;52.278;6.808;2023-04-22T09:09:11;100541.28;;;21.54;50.81
68871;BME280;55906;52.278;6.808;2023-04-22T09:11:37;100534.16;;;21.88;51.32
68871;BME280;55906;52.278;6.808;2023-04-22T09:14:04;100523.41;;;22.25;50.43
68871;BME280;55906;52.278;6.808;2023-04-22T09:16:32;100524.28;;;22.26;50.02
68871;BME280;55906;52.278;6.808;2023-04-22T09:18:59;100518.63;;;22.37;49.08
68871;BME280;55906;52.278;6.808;2023-04-22T09:21:26;100510.94;;;22.24;47.71
68871;BME280;55906;52.278;6.808;2023-04-22T09:23:55;100503.56;;;21.97;46.76
68871;BME280;55906;52.278;6.808;2023-04-22T09:26:24;100512.97;;;21.79;46.31
68871;BME280;55906;52.278;6.808;2023-04-22T09:28:53;100513.41;;;21.62;46.93
68871;BME280;55906;52.278;6.808;2023-04-22T09:31:20;100516.81;;;21.33;47.41
68871;BME280;55906;52.278;6.808;2023-04-22T09:33:49;100518.13;;;21.14;47.65
68871;BME280;55906;52.278;6.808;2023-04-22T09:36:17;100518.41;;;21.02;48.44
68871;BME280;55906;52.278;6.808;2023-04-22T09:38:54;100516.66;;;21.01;48.53
68871;BME280;55906;52.278;6.808;2023-04-22T09:41:28;100510.59;;;20.93;48.24
68871;BME280;55906;52.278;6.808;2023-04-22T09:43:55;100516.88;;;20.90;49.08
68871;BME280;55906;52.278;6.808;2023-04-22T09:46:23;100513.06;;;21.02;48.60
68871;BME280;55906;52.278;6.808;2023-04-22T09:48:51;100508.38;;;21.12;48.39
68871;BME280;55906;52.278;6.808;2023-04-22T09:51:19;100500.38;;;21.49;48.23
68871;BME280;55906;52.278;6.808;2023-04-22T09:53:57;100505.22;;;21.68;46.97
68871;BME280;55906;52.278;6.808;2023-04-22T09:56:40;100507.72;;;22.12;47.10
68871;BME280;55906;52.278;6.808;2023-04-22T09:59:07;100502.34;;;22.10;45.82
68871;BME280;55906;52.278;6.808;2023-04-22T10:01:34;100502.63;;;22.33;45.34
68871;BME280;55906;52.278;6.808;2023-04-22T10:04:01;100507.41;;;22.53;44.26
68871;BME280;55906;52.278;6.808;2023-04-22T10:06:28;100511.75;;;22.88;44.56
68871;BME280;55906;52.278;6.808;2023-04-22T10:08:57;100505.13;;;23.00;43.52
68871;BME280;55906;52.278;6.808;2023-04-22T10:11:24;100503.69;;;23.18;43.24
68871;BME280;55906;52.278;6.808;2023-04-22T10:13:51;100505.03;;;23.31;41.96
68871;BME280;55906;52.278;6.808;2023-04-22T10:16:18;100495.38;;;23.53;42.76
68871;BME280;55906;52.278;6.808;2023-04-22T10:18:46;100490.28;;;23.46;42.71
68871;BME280;55906;52.278;6.808;2023-04-22T10:21:14;100484.06;;;23.97;40.97
68871;BME280;55906;52.278;6.808;2023-04-22T10:23:45;100487.69;;;24.20;41.75
68871;BME280;55906;52.278;6.808;2023-04-22T10:26:43;100492.00;;;24.74;39.25
68871;BME280;55906;52.278;6.808;2023-04-22T10:29:15;100489.69;;;24.87;39.03
68871;BME280;55906;52.278;6.808;2023-04-22T10:31:42;100484.03;;;24.71;37.68
68871;BME280;55906;52.278;6.808;2023-04-22T10:34:10;100478.97;;;24.62;37.50
68871;BME280;55906;52.278;6.808;2023-04-22T10:36:54;100480.25;;;24.52;38.13
68871;BME280;55906;52.278;6.808;2023-04-22T10:39:23;100479.09;;;24.82;38.23
68871;BME280;55906;52.278;6.808;2023-04-22T10:41:54;100482.25;;;25.17;38.11
68871;BME280;55906;52.278;6.808;2023-04-22T10:44:21;100471.22;;;25.23;37.19
68871;BME280;55906;52.278;6.808;2023-04-22T10:46:58;100480.44;;;25.17;36.17
68871;BME280;55906;52.278;6.808;2023-04-22T10:49:28;100470.34;;;25.44;37.32
68871;BME280;55906;52.278;6.808;2023-04-22T10:51:57;100470.66;;;25.37;36.77
68871;BME280;55906;52.278;6.808;2023-04-22T10:57:33;100466.81;;;25.42;36.62
68871;BME280;55906;52.278;6.808;2023-04-22T11:03:09;100470.91;;;24.85;38.14
68871;BME280;55906;52.278;6.808;2023-04-22T11:05:36;100462.31;;;24.99;37.41
68871;BME280;55906;52.278;6.808;2023-04-22T11:08:06;100456.59;;;24.85;37.80
68871;BME280;55906;52.278;6.808;2023-04-22T11:10:35;100448.81;;;25.23;37.23
68871;BME280;55906;52.278;6.808;2023-04-22T11:13:07;100460.16;;;24.85;37.50
68871;BME280;55906;52.278;6.808;2023-04-22T11:15:35;100451.84;;;24.45;38.59
68871;BME280;55906;52.278;6.808;2023-04-22T11:18:07;100446.00;;;24.57;38.68
68871;BME280;55906;52.278;6.808;2023-04-22T11:20:35;100449.25;;;24.88;37.73
68871;BME280;55906;52.278;6.808;2023-04-22T11:23:02;100437.09;;;25.24;37.51
68871;BME280;55906;52.278;6.808;2023-04-22T11:25:29;100440.69;;;25.66;36.91
68871;BME280;55906;52.278;6.808;2023-04-22T11:27:57;100430.72;;;26.09;35.49
68871;BME280;55906;52.278;6.808;2023-04-22T11:30:26;100429.63;;;26.33;35.24
68871;BME280;55906;52.278;6.808;2023-04-22T11:32:56;100428.88;;;26.30;34.91
68871;BME280;55906;52.278;6.808;2023-04-22T11:35:26;100433.38;;;26.68;35.04
68871;BME280;55906;52.278;6.808;2023-04-22T11:37:54;100426.72;;;27.13;33.98
68871;BME280;55906;52.278;6.808;2023-04-22T11:40:23;100428.81;;;27.61;33.37
68871;BME280;55906;52.278;6.808;2023-04-22T11:42:50;100436.53;;;27.69;32.37
68871;BME280;55906;52.278;6.808;2023-04-22T11:45:18;100430.44;;;28.16;32.86
68871;BME280;55906;52.278;6.808;2023-04-22T11:47:48;100437.59;;;28.17;31.88
68871;BME280;55906;52.278;6.808;2023-04-22T11:50:16;100428.53;;;28.18;31.09
68871;BME280;55906;52.278;6.808;2023-04-22T11:52:45;100430.56;;;27.97;32.03
68871;BME280;55906;52.278;6.808;2023-04-22T11:55:13;100426.69;;;28.35;31.43
68871;BME280;55906;52.278;6.808;2023-04-22T11:57:40;100426.75;;;28.83;30.94
68871;BME280;55906;52.278;6.808;2023-04-22T12:00:11;100427.91;;;29.26;31.13
68871;BME280;55906;52.278;6.808;2023-04-22T12:02:39;100416.44;;;28.74;30.71
68871;BME280;55906;52.278;6.808;2023-04-22T12:05:09;100403.94;;;29.18;29.74
68871;BME280;55906;52.278;6.808;2023-04-22T12:07:37;100411.94;;;29.81;30.45
68871;BME280;55906;52.278;6.808;2023-04-22T12:10:05;100406.94;;;29.59;28.56
68871;BME280;55906;52.278;6.808;2023-04-22T12:12:32;100412.94;;;29.35;28.91
68871;BME280;55906;52.278;6.808;2023-04-22T12:15:07;100415.75;;;29.63;28.89
68871;BME280;55906;52.278;6.808;2023-04-22T12:17:33;100398.31;;;29.53;29.18
68871;BME280;55906;52.278;6.808;2023-04-22T12:20:00;100400.56;;;29.60;29.60
68871;BME280;55906;52.278;6.808;2023-04-22T12:22:29;100412.97;;;29.19;29.81
68871;BME280;55906;52.278;6.808;2023-04-22T12:24:57;100408.63;;;29.01;29.44
68871;BME280;55906;52.278;6.808;2023-04-22T12:27:24;100405.22;;;28.97;29.84
68871;BME280;55906;52.278;6.808;2023-04-22T12:29:53;100407.19;;;29.09;29.25
68871;BME280;55906;52.278;6.808;2023-04-22T12:32:21;100396.66;;;29.35;29.16
68871;BME280;55906;52.278;6.808;2023-04-22T12:34:48;100401.50;;;29.14;28.78
68871;BME280;55906;52.278;6.808;2023-04-22T12:37:15;100407.03;;;29.42;29.30
68871;BME280;55906;52.278;6.808;2023-04-22T12:39:43;100395.34;;;28.96;29.76
68871;BME280;55906;52.278;6.808;2023-04-22T12:42:10;100400.81;;;28.30;30.29
68871;BME280;55906;52.278;6.808;2023-04-22T12:44:37;100400.16;;;27.04;32.40
68871;BME280;55906;52.278;6.808;2023-04-22T12:47:04;100403.19;;;27.15;32.51
68871;BME280;55906;52.278;6.808;2023-04-22T12:49:31;100392.00;;;27.05;32.54
68871;BME280;55906;52.278;6.808;2023-04-22T12:51:57;100393.09;;;26.64;33.21
68871;BME280;55906;52.278;6.808;2023-04-22T12:54:24;100396.31;;;26.72;33.74
68871;BME280;55906;52.278;6.808;2023-04-22T12:56:52;100400.69;;;26.56;33.26
68871;BME280;55906;52.278;6.808;2023-04-22T12:59:18;100394.50;;;26.14;34.93